createdAt,value
2022-09-13T00:01:32.115Z,50.07
2022-09-13T00:06:37.658Z,49.50
2022-09-13T00:11:42.917Z,51.00
2022-09-13T00:16:48.105Z,50.33
2022-09-13T00:21:52.906Z,50.00
2022-09-13T00:26:58.954Z,49.67
2022-09-13T00:32:04.061Z,51.07
2022-09-13T00:37:10.280Z,49.53
2022-09-13T00:42:16.441Z,49.88
2022-09-13T00:47:27.724Z,49.07
2022-09-13T00:52:35.499Z,49.33
2022-09-13T00:57:42.505Z,49.37
2022-09-13T01:02:53.994Z,48.73
2022-09-13T01:08:01.338Z,48.60
2022-09-13T01:13:11.214Z,49.42
2022-09-13T01:18:18.362Z,48.80
2022-09-13T01:23:48.867Z,48.75
2022-09-13T01:28:59.738Z,48.60
2022-09-13T01:34:13.701Z,49.37
2022-09-13T01:39:22.723Z,48.20
2022-09-13T01:44:42.619Z,49.13
2022-09-13T01:50:17.742Z,48.57
2022-09-13T01:55:27.257Z,48.33
2022-09-13T02:00:35.195Z,48.30
2022-09-13T02:05:43.612Z,48.13
2022-09-13T02:10:51.598Z,48.63
2022-09-13T02:16:02.652Z,48.67
2022-09-13T02:21:13.652Z,47.80
2022-09-13T02:26:22.204Z,48.83
2022-09-13T02:31:42.822Z,48.30
2022-09-13T02:36:52.135Z,48.17
2022-09-13T02:42:17.799Z,48.30
2022-09-13T02:47:25.792Z,48.97
2022-09-13T02:52:51.658Z,48.00
2022-09-13T02:58:05.632Z,48.57
2022-09-13T03:03:13.741Z,49.10
2022-09-13T03:08:19.777Z,49.08
2022-09-13T03:13:37.714Z,48.50
2022-09-13T03:18:57.961Z,48.77
2022-09-13T03:24:29.356Z,48.23
2022-09-13T03:29:40.207Z,48.93
2022-09-13T03:34:57.427Z,48.70
2022-09-13T03:40:05.373Z,49.57
2022-09-13T03:45:12.510Z,48.43
2022-09-13T03:50:20.834Z,48.13
2022-09-13T03:55:26.338Z,49.00
2022-09-13T04:00:31.723Z,49.30
2022-09-13T04:05:38.394Z,49.53
2022-09-13T04:10:43.926Z,48.75
2022-09-13T04:15:50.135Z,48.20
2022-09-13T04:20:57.819Z,48.45
2022-09-13T04:26:05.014Z,48.13
2022-09-13T04:31:09.955Z,47.75
2022-09-13T04:36:17.222Z,48.38
2022-09-13T04:41:22.984Z,49.20
2022-09-13T04:46:28.427Z,48.23
2022-09-13T04:51:33.622Z,48.40
2022-09-13T04:56:39.408Z,48.97
2022-09-13T05:01:46.342Z,48.93
2022-09-13T05:06:51.502Z,35.20
2022-09-13T05:11:57.797Z,49.77
2022-09-13T05:17:02.642Z,48.47
2022-09-13T05:22:07.996Z,48.53
2022-09-13T05:27:13.437Z,50.37
2022-09-13T05:32:18.790Z,51.27
2022-09-13T05:37:24.120Z,49.20
2022-09-13T05:42:29.314Z,50.43
2022-09-13T05:47:34.324Z,49.83
2022-09-13T05:52:40.171Z,51.80
2022-09-13T05:57:45.206Z,51.33
2022-09-13T06:02:50.233Z,52.20
2022-09-13T06:07:55.077Z,53.17
2022-09-13T06:13:00.200Z,52.93
2022-09-13T06:18:05.168Z,52.53
2022-09-13T06:23:10.713Z,53.90
2022-09-13T06:28:16.132Z,53.85
2022-09-13T06:33:21.024Z,53.23
2022-09-13T06:38:27.064Z,54.60
2022-09-13T06:43:35.179Z,53.70
2022-09-13T06:48:44.299Z,52.35
2022-09-13T06:53:51.794Z,53.23
2022-09-13T06:58:59.318Z,53.13
2022-09-13T07:04:13.598Z,54.13
2022-09-13T07:09:21.843Z,54.03
2022-09-13T07:14:30.969Z,55.00
2022-09-13T07:19:36.411Z,54.43
2022-09-13T07:24:42.362Z,58.10
2022-09-13T07:29:47.459Z,62.85
2022-09-13T07:34:53.161Z,56.47
2022-09-13T07:39:58.298Z,62.70
2022-09-13T07:45:03.387Z,59.20
2022-09-13T07:50:09.452Z,58.20
2022-09-13T07:55:14.430Z,56.83
2022-09-13T08:00:19.727Z,54.45
2022-09-13T08:05:25.421Z,56.37
2022-09-13T08:10:30.541Z,56.37
2022-09-13T08:15:36.071Z,56.47
2022-09-13T08:20:41.622Z,56.47
2022-09-13T08:25:46.569Z,55.87
2022-09-13T08:30:52.351Z,55.90
2022-09-13T08:35:58.516Z,55.13
2022-09-13T08:41:07.518Z,54.63
2022-09-13T08:46:32.150Z,55.73
2022-09-13T08:51:41.286Z,54.70
2022-09-13T08:57:06.445Z,55.60
2022-09-13T09:02:29.979Z,55.10
2022-09-13T09:07:44.743Z,55.50
2022-09-13T09:13:04.620Z,55.10
2022-09-13T09:18:16.093Z,55.20
2022-09-13T09:23:27.719Z,55.38
2022-09-13T09:28:33.830Z,55.03
2022-09-13T09:33:51.689Z,55.35
2022-09-13T09:38:58.109Z,56.17
2022-09-13T09:44:12.326Z,54.95
2022-09-13T09:49:59.347Z,55.80
2022-09-13T10:00:16.240Z,55.58
2022-09-13T10:05:23.886Z,55.63
2022-09-13T10:10:33.501Z,55.70
2022-09-13T10:15:38.717Z,55.17
2022-09-13T10:20:45.499Z,55.20
2022-09-13T10:26:10.004Z,54.83
2022-09-13T10:31:21.858Z,55.83
2022-09-13T10:36:51.575Z,56.53
2022-09-13T10:41:43.399Z,55.30
2022-09-13T10:46:50.855Z,56.37
2022-09-13T10:51:56.199Z,56.03
2022-09-13T10:57:02.798Z,55.60
2022-09-13T11:02:31.235Z,55.67
2022-09-13T11:07:52.037Z,55.45
2022-09-13T11:13:07.423Z,55.37
2022-09-13T11:18:25.506Z,55.40
2022-09-13T11:23:58.566Z,56.37
2022-09-13T11:29:09.445Z,56.83
2022-09-13T11:34:26.373Z,55.60
2022-09-13T11:40:00.573Z,57.25
2022-09-13T11:45:24.076Z,56.23
2022-09-13T11:50:37.132Z,56.17
2022-09-13T11:55:55.071Z,56.63
2022-09-13T12:01:08.798Z,56.47
2022-09-13T12:06:27.750Z,56.20
2022-09-13T12:11:38.746Z,56.40
2022-09-13T12:16:49.184Z,56.05
2022-09-13T12:21:57.694Z,56.00
2022-09-13T12:27:10.766Z,57.47
2022-09-13T12:32:17.331Z,56.03
2022-09-13T12:37:46.824Z,55.20
2022-09-13T12:43:15.160Z,55.55
2022-09-13T12:48:50.311Z,56.30
2022-09-13T12:54:05.687Z,56.17
2022-09-13T12:59:44.936Z,55.85
2022-09-13T13:04:55.606Z,55.70
2022-09-13T13:10:01.088Z,56.00
2022-09-13T13:15:16.082Z,55.53
2022-09-13T13:20:43.519Z,55.23
2022-09-13T13:26:01.732Z,55.87
2022-09-13T13:31:08.326Z,55.40
2022-09-13T13:36:33.214Z,55.80
2022-09-13T13:41:42.335Z,55.30
2022-09-13T13:46:49.935Z,55.33
2022-09-13T13:52:15.023Z,55.47
2022-09-13T13:57:35.543Z,55.60
2022-09-13T14:02:56.083Z,55.73
2022-09-13T14:08:19.708Z,55.40
2022-09-13T14:13:49.323Z,55.20
2022-09-13T14:19:09.520Z,56.07
2022-09-13T14:24:25.059Z,54.77
2022-09-13T14:29:30.641Z,55.80
2022-09-13T14:34:39.778Z,55.33
2022-09-13T14:40:01.361Z,56.05
2022-09-13T14:45:07.481Z,55.55
2022-09-13T14:50:19.880Z,55.38
2022-09-13T14:55:34.497Z,55.27
2022-09-13T15:00:47.082Z,54.93
2022-09-13T15:06:01.641Z,55.40
2022-09-13T15:11:10.286Z,55.20
2022-09-13T15:16:32.740Z,55.80
2022-09-13T15:21:38.511Z,55.37
2022-09-13T15:26:44.169Z,55.33
2022-09-13T15:31:49.468Z,55.85
2022-09-13T15:37:13.024Z,54.98
2022-09-13T15:42:19.109Z,54.93
2022-09-13T15:47:24.068Z,55.03
2022-09-13T15:52:30.562Z,55.43
2022-09-13T15:57:38.829Z,55.23
2022-09-13T16:02:43.985Z,55.50
2022-09-13T16:07:49.583Z,55.10
2022-09-13T16:12:55.281Z,55.33
2022-09-13T16:18:00.807Z,55.45
2022-09-13T16:23:06.161Z,54.67
2022-09-13T16:28:18.015Z,55.60
2022-09-13T16:33:23.743Z,54.83
2022-09-13T16:38:28.790Z,55.13
2022-09-13T16:43:33.775Z,55.30
2022-09-13T16:48:40.591Z,55.67
2022-09-13T16:53:46.154Z,57.43
2022-09-13T16:58:53.006Z,58.27
2022-09-13T17:03:58.780Z,58.57
2022-09-13T17:09:06.748Z,60.43
2022-09-13T17:14:15.901Z,57.17
2022-09-13T17:19:25.145Z,57.17
2022-09-13T17:24:31.506Z,56.23
2022-09-13T17:29:37.628Z,56.88
2022-09-13T17:34:43.078Z,58.67
2022-09-13T17:39:48.479Z,59.00
2022-09-13T17:44:54.321Z,57.90
2022-09-13T17:49:59.516Z,58.07
2022-09-13T17:55:05.257Z,60.27
2022-09-13T18:00:12.816Z,61.10
2022-09-13T18:05:18.319Z,58.33
2022-09-13T18:10:45.516Z,62.40
2022-09-13T18:15:31.519Z,58.47
2022-09-13T18:20:40.629Z,58.08
2022-09-13T18:25:46.150Z,58.63
2022-09-13T18:30:57.074Z,58.63
2022-09-13T18:36:05.351Z,59.80
2022-09-13T18:41:16.964Z,61.63
2022-09-13T18:46:25.505Z,60.17
2022-09-13T18:51:43.132Z,58.43
2022-09-13T18:56:49.368Z,55.97
2022-09-13T19:01:55.129Z,56.83
2022-09-13T19:07:02.077Z,57.67
2022-09-13T19:12:09.038Z,59.65
2022-09-13T19:17:17.148Z,58.10
2022-09-13T19:22:22.764Z,56.98
2022-09-13T19:27:28.459Z,55.63
2022-09-13T19:32:36.200Z,55.43
2022-09-13T19:37:41.454Z,56.70
2022-09-13T19:42:47.061Z,56.03
2022-09-13T19:53:03.251Z,56.10
2022-09-13T19:58:08.627Z,56.63
2022-09-13T20:03:16.284Z,56.13
2022-09-13T20:08:25.226Z,56.83
2022-09-13T20:13:31.555Z,55.70
2022-09-13T20:18:37.961Z,56.37
2022-09-13T20:23:44.104Z,55.50
2022-09-13T20:28:50.459Z,54.65
2022-09-13T20:34:00.072Z,55.20
2022-09-13T20:39:06.866Z,55.07
2022-09-13T20:44:12.831Z,54.97
2022-09-13T20:49:17.744Z,55.43
2022-09-13T20:54:23.775Z,55.73
2022-09-13T20:59:28.694Z,54.67
2022-09-13T21:04:34.319Z,55.10
2022-09-13T21:09:39.620Z,54.53
2022-09-13T21:14:47.324Z,54.03
2022-09-13T21:19:52.964Z,54.10
2022-09-13T21:24:58.991Z,54.63
2022-09-13T21:30:08.152Z,54.85
2022-09-13T21:35:14.311Z,54.98
2022-09-13T21:40:19.536Z,53.80
2022-09-13T21:45:25.633Z,53.80
2022-09-13T21:50:32.439Z,53.78
2022-09-13T21:55:39.639Z,53.97
2022-09-13T22:00:44.940Z,54.10
2022-09-13T22:05:53.292Z,54.70
2022-09-13T22:10:58.308Z,53.87
2022-09-13T22:16:09.005Z,54.07
2022-09-13T22:21:17.597Z,55.10
2022-09-13T22:26:25.401Z,53.80
2022-09-13T22:31:33.586Z,53.80
2022-09-13T22:36:38.814Z,53.87
2022-09-13T22:41:44.579Z,55.63
2022-09-13T22:46:49.818Z,54.70
2022-09-13T22:51:54.665Z,53.73
2022-09-13T22:57:00.917Z,53.83
2022-09-13T23:02:07.540Z,53.50
2022-09-13T23:07:12.652Z,53.15
2022-09-13T23:12:17.745Z,54.33
2022-09-13T23:17:23.056Z,53.73
2022-09-13T23:22:27.868Z,53.33
2022-09-13T23:27:32.756Z,52.33
2022-09-13T23:32:38.136Z,52.60
2022-09-13T23:37:43.938Z,52.77
2022-09-13T23:42:49.509Z,52.50
2022-09-13T23:47:54.896Z,51.97
2022-09-13T23:53:00.405Z,52.67
2022-09-13T23:58:05.604Z,52.87
